createdAt,value
2022-08-09T00:00:32.367Z,70.99
2022-08-09T00:01:10.465Z,71.29
2022-08-09T00:01:55.139Z,71.45
2022-08-09T00:02:27.805Z,71.45
2022-08-09T00:02:59.956Z,71.24
2022-08-09T00:04:00.820Z,71.13
2022-08-09T00:04:34.684Z,71.44
2022-08-09T00:06:19.162Z,70.67
2022-08-09T00:06:19.694Z,70.96
2022-08-09T00:06:52.413Z,70.38
2022-08-09T00:07:24.831Z,70.38
2022-08-09T00:08:01.713Z,70.65
2022-08-09T00:08:34.209Z,70.63
2022-08-09T00:09:06.093Z,70.62
2022-08-09T00:09:42.575Z,70.61
2022-08-09T00:10:18.034Z,70.30
2022-08-09T00:10:53.589Z,70.30
2022-08-09T00:11:58.680Z,70.28
2022-08-09T00:12:23.023Z,70.18
2022-08-09T00:12:54.983Z,70.09
2022-08-09T00:13:27.398Z,70.10
2022-08-09T00:13:59.515Z,70.09
2022-08-09T00:14:38.194Z,70.25
2022-08-09T00:15:14.574Z,70.39
2022-08-09T00:15:59.970Z,70.34
2022-08-09T00:16:36.769Z,70.34
2022-08-09T00:18:05.170Z,70.82
2022-08-09T00:18:05.709Z,70.90
2022-08-09T00:18:42.581Z,70.92
2022-08-09T00:19:14.840Z,70.99
2022-08-09T00:19:50.551Z,71.02
2022-08-09T00:20:23.839Z,71.18
2022-08-09T00:20:55.842Z,70.85
2022-08-09T00:21:27.858Z,70.81
2022-08-09T00:22:00.818Z,70.71
2022-08-09T00:22:36.288Z,70.77
2022-08-09T00:23:54.004Z,70.74
2022-08-09T00:24:00.789Z,70.86
2022-08-09T00:24:33.692Z,70.79
2022-08-09T00:25:08.338Z,70.70
2022-08-09T00:25:42.031Z,70.94
2022-08-09T00:26:16.008Z,70.97
2022-08-09T00:26:49.039Z,70.78
2022-08-09T00:27:21.116Z,70.61
2022-08-09T00:27:53.376Z,70.53
2022-08-09T00:28:26.512Z,70.33
2022-08-09T00:29:00.759Z,70.48
2022-08-09T00:30:16.314Z,70.67
2022-08-09T00:30:26.834Z,70.40
2022-08-09T00:30:59.100Z,70.51
2022-08-09T00:31:59.452Z,70.54
2022-08-09T00:32:25.657Z,70.66
2022-08-09T00:32:59.732Z,70.64
2022-08-09T00:33:32.679Z,70.56
2022-08-09T00:34:20.876Z,70.59
2022-08-09T00:34:53.015Z,70.70
2022-08-09T00:35:25.101Z,70.83
2022-08-09T00:36:03.277Z,70.93
2022-08-09T00:36:35.235Z,70.88
2022-08-09T00:37:07.310Z,70.83
2022-08-09T00:37:41.467Z,71.06
2022-08-09T00:38:15.791Z,70.55
2022-08-09T00:38:50.851Z,70.30
2022-08-09T00:40:09.081Z,70.46
2022-08-09T00:40:17.417Z,70.78
2022-08-09T00:40:52.650Z,70.35
2022-08-09T00:44:10.075Z,70.23
2022-08-09T00:44:11.745Z,70.40
2022-08-09T00:44:13.330Z,70.37
2022-08-09T00:44:15.308Z,70.24
2022-08-09T00:44:55.842Z,70.07
2022-08-09T00:45:29.212Z,70.20
2022-08-09T00:46:01.121Z,69.87
2022-08-09T00:46:56.063Z,69.90
2022-08-09T00:47:26.759Z,70.11
2022-08-09T00:48:08.383Z,70.33
2022-08-09T00:48:49.501Z,70.44
2022-08-09T00:49:28.167Z,70.10
2022-08-09T00:50:02.210Z,70.07
2022-08-09T00:50:37.875Z,70.21
2022-08-09T00:51:12.967Z,70.28
2022-08-09T00:51:54.497Z,70.13
2022-08-09T00:52:30.760Z,70.21
2022-08-09T00:53:10.158Z,70.24
2022-08-09T00:53:42.966Z,70.31
2022-08-09T00:54:18.436Z,70.46
2022-08-09T00:54:53.442Z,70.41
2022-08-09T00:56:04.026Z,70.17
2022-08-09T00:56:17.451Z,70.07
2022-08-09T00:56:49.361Z,70.54
2022-08-09T00:57:24.696Z,70.82
2022-08-09T00:58:07.129Z,70.87
2022-08-09T00:58:41.384Z,70.85
2022-08-09T00:59:40.501Z,70.70
2022-08-09T01:00:21.196Z,70.56
2022-08-09T01:00:58.893Z,70.33
2022-08-09T01:01:44.879Z,70.71
2022-08-09T01:02:22.535Z,70.67
2022-08-09T01:03:08.176Z,70.46
2022-08-09T01:04:19.388Z,70.81
2022-08-09T01:05:14.170Z,70.81
2022-08-09T01:06:17.996Z,70.42
2022-08-09T01:07:05.542Z,70.12
2022-08-09T01:08:00.009Z,70.11
2022-08-09T01:08:51.740Z,69.94
2022-08-09T01:09:36.018Z,70.02
2022-08-09T01:10:33.850Z,69.95
2022-08-09T01:11:23.834Z,70.01
2022-08-09T01:12:19.015Z,69.92
2022-08-09T01:13:00.782Z,69.72
2022-08-09T01:13:41.894Z,69.66
2022-08-09T01:14:52.481Z,69.73
2022-08-09T01:15:29.204Z,70.25
2022-08-09T01:16:05.896Z,70.42
2022-08-09T01:16:47.393Z,70.17
2022-08-09T01:17:44.467Z,70.24
2022-08-09T01:18:30.389Z,70.11
2022-08-09T01:19:40.183Z,70.24
2022-08-09T01:20:57.153Z,70.13
2022-08-09T01:21:50.898Z,69.92
2022-08-09T01:23:01.012Z,69.96
2022-08-09T01:24:02.149Z,70.06
2022-08-09T01:24:54.436Z,70.15
2022-08-09T01:25:42.198Z,70.20
2022-08-09T01:26:42.682Z,70.65
2022-08-09T01:27:21.786Z,70.63
2022-08-09T01:27:57.006Z,70.37
2022-08-09T01:28:31.396Z,70.32
2022-08-09T01:29:06.589Z,70.45
2022-08-09T01:29:56.120Z,70.43
2022-08-09T01:30:35.691Z,70.46
2022-08-09T01:32:29.924Z,70.43
2022-08-09T01:32:37.747Z,70.44
2022-08-09T01:33:12.494Z,70.59
2022-08-09T01:33:48.703Z,71.22
2022-08-09T01:34:23.090Z,71.46
2022-08-09T01:34:56.331Z,71.20
2022-08-09T01:35:45.604Z,70.93
2022-08-09T01:36:22.779Z,70.82
2022-08-09T01:36:57.943Z,70.76
2022-08-09T01:37:42.902Z,70.91
2022-08-09T01:38:28.008Z,70.90
2022-08-09T01:39:02.516Z,70.48
2022-08-09T01:39:36.590Z,70.54
2022-08-09T01:40:10.958Z,70.58
2022-08-09T01:41:16.962Z,70.54
2022-08-09T01:41:53.525Z,70.54
2022-08-09T01:42:35.226Z,70.41
2022-08-09T01:43:08.916Z,70.75
2022-08-09T01:43:52.551Z,71.01
2022-08-09T01:44:25.873Z,71.11
2022-08-09T01:44:59.324Z,71.20
2022-08-09T01:45:32.959Z,71.25
2022-08-09T01:46:09.964Z,71.26
2022-08-09T01:46:53.105Z,71.42
2022-08-09T01:47:27.261Z,71.33
2022-08-09T01:48:06.057Z,71.20
2022-08-09T01:48:39.895Z,71.65
2022-08-09T01:49:15.570Z,71.28
2022-08-09T01:49:50.992Z,71.20
2022-08-09T01:50:36.546Z,71.21
2022-08-09T01:51:10.073Z,71.35
2022-08-09T01:51:54.803Z,71.32
2022-08-09T01:52:27.605Z,71.59
2022-08-09T01:53:19.409Z,71.59
2022-08-09T01:53:58.029Z,71.68
2022-08-09T01:54:44.392Z,71.98
2022-08-09T01:55:17.959Z,71.85
2022-08-09T01:55:52.506Z,71.54
2022-08-09T01:56:29.093Z,71.30
2022-08-09T01:57:08.096Z,71.05
2022-08-09T01:57:45.784Z,71.12
2022-08-09T01:58:18.489Z,71.33
2022-08-09T01:58:58.991Z,71.26
2022-08-09T01:59:32.711Z,72.09
2022-08-09T02:00:35.234Z,72.21
2022-08-09T02:01:08.292Z,72.06
2022-08-09T02:01:58.000Z,71.82
2022-08-09T02:02:34.998Z,71.71
2022-08-09T02:03:13.537Z,71.24
2022-08-09T02:03:47.370Z,71.34
2022-08-09T02:04:21.767Z,71.60
2022-08-09T02:04:56.465Z,71.64
2022-08-09T02:05:35.461Z,71.44
2022-08-09T02:06:11.676Z,71.39
2022-08-09T02:07:04.134Z,71.51
2022-08-09T02:08:41.355Z,71.43
2022-08-09T02:08:58.120Z,71.40
2022-08-09T02:09:41.866Z,70.88
2022-08-09T02:10:29.765Z,71.08
2022-08-09T02:11:03.606Z,71.36
2022-08-09T02:11:49.860Z,71.04
2022-08-09T02:12:22.732Z,70.92
2022-08-09T02:12:56.194Z,70.79
2022-08-09T02:13:37.625Z,70.87
2022-08-09T02:14:26.391Z,71.21
2022-08-09T02:15:00.838Z,71.11
2022-08-09T02:15:50.455Z,71.01
2022-08-09T02:16:33.819Z,70.94
2022-08-09T02:17:59.429Z,71.22
2022-08-09T02:18:10.989Z,71.07
2022-08-09T02:18:47.756Z,71.05
2022-08-09T02:19:20.461Z,71.17
2022-08-09T02:19:53.513Z,71.34
2022-08-09T02:20:32.988Z,71.33
2022-08-09T02:21:17.305Z,71.34
2022-08-09T02:21:59.070Z,71.44
2022-08-09T02:22:39.731Z,71.46
2022-08-09T02:23:20.973Z,71.31
2022-08-09T02:23:57.905Z,71.40
2022-08-09T02:24:35.489Z,71.37
2022-08-09T02:25:19.458Z,71.94
2022-08-09T02:25:55.907Z,72.18
2022-08-09T02:26:33.341Z,71.85
2022-08-09T02:27:09.037Z,71.73
2022-08-09T02:28:00.445Z,71.72
2022-08-09T02:28:41.909Z,71.39
2022-08-09T02:29:27.735Z,71.06
2022-08-09T02:30:05.337Z,71.25
2022-08-09T02:30:48.675Z,70.99
2022-08-09T02:31:31.286Z,70.91
2022-08-09T02:32:09.459Z,70.76
2022-08-09T02:32:46.117Z,70.67
2022-08-09T02:33:38.177Z,70.81
2022-08-09T02:34:40.904Z,71.23
2022-08-09T02:35:46.273Z,71.23
2022-08-09T02:36:22.393Z,71.32
2022-08-09T02:37:03.449Z,71.21
2022-08-09T02:37:37.393Z,70.93
2022-08-09T02:38:23.630Z,70.84
2022-08-09T02:39:05.718Z,70.87
2022-08-09T02:40:01.786Z,71.18
2022-08-09T02:40:37.275Z,71.01
2022-08-09T02:41:11.668Z,71.23
2022-08-09T02:41:47.918Z,70.97
2022-08-09T02:42:25.857Z,70.67
2022-08-09T02:43:01.035Z,70.84
2022-08-09T02:43:54.180Z,71.25
2022-08-09T02:44:34.312Z,71.27
2022-08-09T02:45:11.011Z,71.14
2022-08-09T02:45:45.557Z,71.54
2022-08-09T02:46:22.680Z,71.44
2022-08-09T02:46:59.776Z,71.14
2022-08-09T02:47:57.210Z,71.10
2022-08-09T02:48:31.205Z,71.36
2022-08-09T02:49:09.022Z,71.26
2022-08-09T02:50:07.707Z,71.60
2022-08-09T02:50:49.291Z,71.70
2022-08-09T02:51:26.597Z,71.86
2022-08-09T02:52:00.730Z,72.03
2022-08-09T02:52:43.145Z,71.78
2022-08-09T02:53:26.594Z,71.52
2022-08-09T02:54:02.810Z,71.57
2022-08-09T02:54:54.198Z,71.68
2022-08-09T02:55:33.537Z,71.45
2022-08-09T02:56:20.591Z,71.30
2022-08-09T02:56:57.153Z,71.49
2022-08-09T02:57:30.545Z,71.51
2022-08-09T02:58:35.539Z,71.44
2022-08-09T02:59:09.315Z,71.25
2022-08-09T03:00:11.351Z,71.54
2022-08-09T03:00:39.366Z,71.61
2022-08-09T03:01:29.685Z,71.53
2022-08-09T03:02:17.177Z,71.43
2022-08-09T03:03:00.663Z,71.29
2022-08-09T03:03:37.186Z,71.41
2022-08-09T03:04:29.701Z,71.11
2022-08-09T03:05:03.222Z,71.45
2022-08-09T03:05:39.562Z,71.32
2022-08-09T03:06:14.980Z,71.17
2022-08-09T03:06:48.819Z,71.35
2022-08-09T03:07:22.126Z,71.23
2022-08-09T03:07:55.529Z,71.56
2022-08-09T03:08:30.100Z,71.52
2022-08-09T03:09:03.945Z,71.63
2022-08-09T03:09:37.286Z,71.83
2022-08-09T03:10:16.535Z,71.97
2022-08-09T03:10:50.738Z,72.16
2022-08-09T03:12:06.555Z,71.88
2022-08-09T03:12:18.817Z,72.03
2022-08-09T03:12:52.769Z,71.84
2022-08-09T03:13:25.661Z,71.99
2022-08-09T03:14:18.251Z,71.92
2022-08-09T03:14:51.779Z,71.86
2022-08-09T03:15:25.583Z,71.70
2022-08-09T03:16:21.001Z,71.68
2022-08-09T03:16:54.522Z,71.93
2022-08-09T03:17:31.686Z,71.69
2022-08-09T03:18:09.719Z,71.86
2022-08-09T03:18:43.697Z,71.89
2022-08-09T03:19:59.035Z,71.70
2022-08-09T03:20:13.317Z,71.71
2022-08-09T03:20:47.851Z,71.48
2022-08-09T03:21:25.710Z,71.40
2022-08-09T03:21:58.404Z,71.92
2022-08-09T03:22:33.526Z,71.80
2022-08-09T03:23:24.416Z,71.68
2022-08-09T03:24:03.794Z,72.08
2022-08-09T03:24:42.595Z,72.21
2022-08-09T03:25:26.687Z,72.14
2022-08-09T03:26:18.631Z,72.10
2022-08-09T03:26:52.019Z,72.85
2022-08-09T03:27:26.838Z,73.15
2022-08-09T03:28:01.932Z,73.01
2022-08-09T03:28:37.007Z,72.96
2022-08-09T03:29:09.709Z,72.97
2022-08-09T03:29:58.189Z,72.82
2022-08-09T03:30:36.774Z,73.18
2022-08-09T03:31:21.315Z,73.32
2022-08-09T03:32:00.278Z,73.05
2022-08-09T03:32:37.201Z,72.61
2022-08-09T03:33:17.596Z,72.34
2022-08-09T03:33:53.069Z,72.29
2022-08-09T03:34:26.865Z,72.34
2022-08-09T03:34:59.851Z,72.27
2022-08-09T03:35:44.198Z,72.31
2022-08-09T03:36:27.078Z,72.24
2022-08-09T03:37:02.342Z,72.84
2022-08-09T03:37:55.815Z,72.70
2022-08-09T03:38:30.838Z,72.26
2022-08-09T03:39:04.467Z,72.04
2022-08-09T03:39:38.037Z,72.10
2022-08-09T03:40:13.071Z,72.33
2022-08-09T03:40:45.267Z,72.58
2022-08-09T03:41:18.526Z,72.81
2022-08-09T03:41:51.252Z,72.64
2022-08-09T03:42:39.670Z,72.56
2022-08-09T03:43:15.110Z,72.58
2022-08-09T03:44:03.590Z,72.50
2022-08-09T03:44:39.931Z,72.37
2022-08-09T03:45:11.953Z,72.46
2022-08-09T03:46:03.829Z,72.65
2022-08-09T03:46:37.098Z,72.50
2022-08-09T03:47:09.017Z,72.36
2022-08-09T03:47:42.145Z,72.46
2022-08-09T03:48:30.740Z,72.39
2022-08-09T03:49:08.852Z,72.01
2022-08-09T03:49:58.904Z,71.98
2022-08-09T03:50:33.130Z,72.00
2022-08-09T03:51:08.316Z,71.82
2022-08-09T03:52:03.806Z,71.89
2022-08-09T03:52:38.734Z,71.91
2022-08-09T03:53:11.687Z,71.95
2022-08-09T03:53:44.740Z,71.77
2022-08-09T03:54:18.718Z,71.86
2022-08-09T03:55:07.685Z,72.09
2022-08-09T03:55:42.524Z,71.98
2022-08-09T03:56:14.662Z,71.65
2022-08-09T03:56:46.868Z,71.70
2022-08-09T03:57:20.855Z,71.84
2022-08-09T03:58:03.294Z,71.84
2022-08-09T03:58:39.017Z,71.80
2022-08-09T03:59:17.074Z,71.72
2022-08-09T03:59:55.982Z,71.69
2022-08-09T04:00:28.897Z,71.77
2022-08-09T04:01:01.635Z,71.88
2022-08-09T04:01:35.603Z,71.85
2022-08-09T04:02:07.641Z,71.62
2022-08-09T04:02:44.958Z,71.72
2022-08-09T04:03:24.588Z,71.79
2022-08-09T04:04:10.124Z,71.85
2022-08-09T04:04:47.890Z,71.82
2022-08-09T04:05:27.369Z,71.77
2022-08-09T04:06:00.534Z,71.68
2022-08-09T04:06:37.173Z,71.95
2022-08-09T04:07:09.684Z,72.09
2022-08-09T04:07:52.404Z,71.80
2022-08-09T04:08:28.740Z,71.92
2022-08-09T04:09:03.576Z,72.20
2022-08-09T04:09:50.257Z,72.36
2022-08-09T04:10:29.745Z,72.20
2022-08-09T04:11:02.194Z,72.11
2022-08-09T04:12:07.651Z,72.36
2022-08-09T04:12:47.682Z,72.19
2022-08-09T04:13:45.098Z,71.80
2022-08-09T04:14:53.505Z,71.65
2022-08-09T04:15:11.538Z,72.00
2022-08-09T04:16:20.236Z,72.00
2022-08-09T04:16:41.968Z,71.59
2022-08-09T04:17:14.338Z,71.20
2022-08-09T04:17:47.853Z,71.30
2022-08-09T04:18:21.595Z,71.37
2022-08-09T04:18:54.307Z,71.50
2022-08-09T04:19:42.667Z,72.07
2022-08-09T04:20:16.366Z,71.92
2022-08-09T04:20:48.830Z,72.31
2022-08-09T04:21:22.169Z,72.15
2022-08-09T04:21:54.274Z,71.70
2022-08-09T04:22:27.971Z,71.68
2022-08-09T04:23:00.305Z,71.84
2022-08-09T04:23:34.139Z,71.84
2022-08-09T04:24:06.747Z,71.78
2022-08-09T04:24:39.022Z,71.76
2022-08-09T04:25:13.435Z,71.83
2022-08-09T04:25:51.698Z,71.76
2022-08-09T04:26:25.223Z,71.80
2022-08-09T04:27:09.942Z,71.76
2022-08-09T04:27:42.821Z,72.11
2022-08-09T04:28:34.027Z,72.10
2022-08-09T04:29:12.111Z,72.16
2022-08-09T04:29:49.729Z,72.08
2022-08-09T04:30:26.140Z,72.01
2022-08-09T04:31:00.727Z,72.08
2022-08-09T04:31:47.250Z,71.93
2022-08-09T04:32:31.674Z,71.68
2022-08-09T04:33:06.155Z,71.72
2022-08-09T04:33:52.713Z,72.05
2022-08-09T04:34:30.622Z,72.43
2022-08-09T04:35:05.469Z,72.33
2022-08-09T04:35:42.473Z,72.56
2022-08-09T04:36:14.443Z,72.63
2022-08-09T04:36:51.339Z,72.87
2022-08-09T04:37:24.574Z,73.07
2022-08-09T04:38:16.571Z,73.31
2022-08-09T04:38:51.267Z,73.50
2022-08-09T04:39:24.263Z,73.50
2022-08-09T04:39:56.245Z,73.48
2022-08-09T04:40:48.179Z,73.52
2022-08-09T04:41:32.214Z,73.16
2022-08-09T04:42:04.974Z,72.72
2022-08-09T04:42:41.367Z,72.94
2022-08-09T04:43:18.474Z,72.75
2022-08-09T04:44:05.232Z,72.84
2022-08-09T04:44:39.406Z,72.80
2022-08-09T04:45:21.149Z,72.70
2022-08-09T04:45:55.659Z,72.49
2022-08-09T04:46:57.620Z,72.30
2022-08-09T04:47:25.984Z,72.45
2022-08-09T04:48:10.340Z,72.16
2022-08-09T04:48:57.453Z,71.95
2022-08-09T04:49:52.590Z,72.00
2022-08-09T04:50:25.246Z,71.53
2022-08-09T04:51:07.058Z,71.59
2022-08-09T04:51:38.967Z,71.98
2022-08-09T04:52:10.936Z,71.80
2022-08-09T04:52:43.248Z,71.59
2022-08-09T04:53:16.160Z,71.64
2022-08-09T04:53:51.182Z,71.56
2022-08-09T04:54:25.809Z,71.58
2022-08-09T04:55:02.527Z,71.56
2022-08-09T04:55:39.590Z,71.46
2022-08-09T04:56:30.451Z,71.34
2022-08-09T04:57:03.869Z,71.25
2022-08-09T04:57:59.341Z,71.14
2022-08-09T04:58:29.023Z,70.94
2022-08-09T04:59:04.885Z,70.99
2022-08-09T04:59:39.962Z,70.97
2022-08-09T05:00:13.115Z,70.99
2022-08-09T05:00:45.568Z,70.65
2022-08-09T05:01:18.696Z,70.56
2022-08-09T05:01:50.981Z,70.43
2022-08-09T05:02:30.638Z,70.34
2022-08-09T05:03:30.778Z,70.38
2022-08-09T05:03:58.763Z,70.79
2022-08-09T05:04:34.858Z,70.50
2022-08-09T05:05:09.842Z,70.24
2022-08-09T05:05:52.056Z,69.89
2022-08-09T05:06:35.920Z,69.65
2022-08-09T05:07:08.258Z,69.87
2022-08-09T05:07:51.031Z,69.82
2022-08-09T05:08:25.282Z,69.98
2022-08-09T05:09:01.309Z,69.90
2022-08-09T05:09:48.808Z,69.99
2022-08-09T05:10:22.004Z,70.00
2022-08-09T05:10:56.052Z,69.76
2022-08-09T05:11:35.899Z,69.58
2022-08-09T05:12:08.456Z,69.37
2022-08-09T05:12:41.822Z,69.23
2022-08-09T05:13:14.204Z,68.99
2022-08-09T05:13:47.334Z,69.26
2022-08-09T05:14:20.654Z,69.32
2022-08-09T05:14:58.899Z,69.14
2022-08-09T05:15:42.776Z,69.19
2022-08-09T05:16:20.211Z,68.68
2022-08-09T05:17:03.542Z,69.11
2022-08-09T05:18:55.093Z,69.10
2022-08-09T05:18:57.362Z,68.77
2022-08-09T05:19:31.772Z,68.36
2022-08-09T05:20:16.772Z,68.28
2022-08-09T05:20:48.974Z,68.35
2022-08-09T05:21:24.154Z,68.46
2022-08-09T05:21:56.898Z,68.33
2022-08-09T05:22:35.109Z,67.90
2022-08-09T05:23:54.427Z,67.85
2022-08-09T05:24:02.213Z,67.70
2022-08-09T05:24:35.842Z,68.15
2022-08-09T05:25:08.143Z,67.77
2022-08-09T05:25:41.675Z,67.51
2022-08-09T05:26:16.144Z,67.34
2022-08-09T05:27:04.624Z,67.24
2022-08-09T05:27:39.028Z,67.45
2022-08-09T05:28:18.842Z,67.29
2022-08-09T05:28:52.192Z,67.29
2022-08-09T05:29:31.160Z,66.99
2022-08-09T05:30:04.716Z,66.88
2022-08-09T05:30:38.952Z,66.61
2022-08-09T05:31:37.135Z,66.17
2022-08-09T05:32:11.989Z,66.47
2022-08-09T05:32:51.009Z,66.44
2022-08-09T05:33:26.512Z,66.36
2022-08-09T05:34:05.362Z,66.55
2022-08-09T05:34:37.958Z,66.61
2022-08-09T05:35:14.879Z,66.20
2022-08-09T05:35:50.791Z,65.92
2022-08-09T05:36:22.892Z,65.71
2022-08-09T05:37:06.047Z,65.50
2022-08-09T05:37:47.511Z,66.00
2022-08-09T05:38:21.643Z,65.87
2022-08-09T05:38:54.211Z,64.89
2022-08-09T05:39:28.794Z,64.05
2022-08-09T05:40:04.470Z,63.98
2022-08-09T05:40:37.066Z,63.93
2022-08-09T05:41:12.776Z,63.95
2022-08-09T05:41:44.904Z,63.63
2022-08-09T05:42:21.384Z,63.87
2022-08-09T05:42:54.166Z,63.43
2022-08-09T05:43:31.726Z,63.40
2022-08-09T05:44:04.210Z,63.29
2022-08-09T05:44:37.401Z,63.36
2022-08-09T05:45:14.236Z,63.37
2022-08-09T05:45:55.672Z,62.98
2022-08-09T05:46:28.930Z,62.52
2022-08-09T05:47:01.122Z,62.37
2022-08-09T05:47:50.854Z,62.67
2022-08-09T05:48:27.882Z,62.53
2022-08-09T05:49:07.303Z,62.22
2022-08-09T05:50:30.684Z,62.01
2022-08-09T05:51:10.205Z,61.70
2022-08-09T05:51:46.126Z,60.97
2022-08-09T05:52:18.871Z,60.73
2022-08-09T05:52:54.090Z,60.83
2022-08-09T05:53:32.132Z,60.67
2022-08-09T05:54:05.984Z,60.46
2022-08-09T05:54:38.383Z,60.38
2022-08-09T05:55:20.786Z,59.84
2022-08-09T05:55:53.633Z,59.55
2022-08-09T05:56:28.035Z,59.13
2022-08-09T05:56:59.984Z,59.17
2022-08-09T05:57:56.031Z,59.93
2022-08-09T05:58:23.773Z,59.67
2022-08-09T05:58:59.775Z,59.50
2022-08-09T05:59:31.651Z,59.32
2022-08-09T06:00:07.631Z,58.66
2022-08-09T06:00:43.457Z,58.24
2022-08-09T06:01:16.748Z,58.22
2022-08-09T06:01:51.516Z,57.96
2022-08-09T06:02:31.180Z,57.43
2022-08-09T06:03:10.604Z,58.14
2022-08-09T06:03:44.080Z,58.75
2022-08-09T06:04:34.772Z,58.78
2022-08-09T06:05:08.991Z,59.09
2022-08-09T06:05:58.178Z,59.29
2022-08-09T06:06:34.089Z,58.31
2022-08-09T06:07:06.051Z,57.45
2022-08-09T06:07:41.310Z,57.30
2022-08-09T06:08:14.258Z,57.51
2022-08-09T06:08:52.472Z,58.11
2022-08-09T06:09:54.431Z,58.15
2022-08-09T06:10:18.128Z,57.96
2022-08-09T06:10:55.944Z,57.48
2022-08-09T06:11:41.262Z,57.63
2022-08-09T06:12:20.314Z,58.11
2022-08-09T06:12:57.822Z,57.30
2022-08-09T06:13:35.690Z,57.16
2022-08-09T06:14:09.311Z,55.37
2022-08-09T06:14:41.578Z,54.40
2022-08-09T06:15:13.509Z,53.46
2022-08-09T06:15:46.950Z,53.56
2022-08-09T06:16:19.017Z,53.58
2022-08-09T06:16:52.153Z,53.50
2022-08-09T06:17:24.900Z,53.66
2022-08-09T06:17:56.939Z,52.89
2022-08-09T06:18:29.577Z,52.30
2022-08-09T06:19:02.552Z,51.63
2022-08-09T06:19:36.494Z,51.71
2022-08-09T06:20:09.451Z,51.58
2022-08-09T06:20:42.159Z,51.42
2022-08-09T06:21:16.342Z,51.10
2022-08-09T06:21:50.469Z,50.94
2022-08-09T06:22:30.559Z,51.30
2022-08-09T06:23:02.478Z,50.94
2022-08-09T06:23:57.777Z,51.64
2022-08-09T06:24:28.128Z,51.51
2022-08-09T06:25:00.721Z,51.37
2022-08-09T06:25:32.712Z,51.34
2022-08-09T06:26:06.619Z,52.29
2022-08-09T06:26:42.093Z,52.15
2022-08-09T06:27:17.277Z,52.31
2022-08-09T06:27:51.675Z,52.29
2022-08-09T06:28:27.446Z,51.67
2022-08-09T06:29:05.100Z,51.15
2022-08-09T06:29:47.958Z,50.40
2022-08-09T06:30:29.333Z,50.08
2022-08-09T06:31:01.235Z,49.85
2022-08-09T06:31:39.975Z,50.06
2022-08-09T06:32:53.519Z,50.97
2022-08-09T06:33:40.098Z,50.75
2022-08-09T06:34:10.671Z,50.29
2022-08-09T06:34:42.976Z,49.86
2022-08-09T06:35:15.583Z,49.49
2022-08-09T06:35:57.226Z,49.53
2022-08-09T06:36:30.184Z,49.88
2022-08-09T06:37:02.324Z,50.16
2022-08-09T06:38:06.116Z,50.49
2022-08-09T06:38:37.241Z,50.60
2022-08-09T06:39:11.761Z,50.33
2022-08-09T06:39:58.154Z,49.29
2022-08-09T06:40:33.450Z,49.26
2022-08-09T06:41:18.177Z,49.49
2022-08-09T06:42:07.714Z,48.99
2022-08-09T06:42:45.227Z,48.45
2022-08-09T06:43:19.082Z,48.04
2022-08-09T06:43:53.161Z,48.01
2022-08-09T06:44:25.426Z,47.99
2022-08-09T06:45:00.285Z,47.84
2022-08-09T06:46:07.378Z,47.81
2022-08-09T06:46:39.476Z,48.13
2022-08-09T06:47:12.900Z,47.96
2022-08-09T06:47:48.601Z,48.05
2022-08-09T06:48:32.396Z,48.20
2022-08-09T06:49:08.459Z,48.02
2022-08-09T06:50:11.516Z,48.18
2022-08-09T06:50:32.736Z,48.56
2022-08-09T06:51:06.459Z,48.39
2022-08-09T06:51:40.060Z,48.12
2022-08-09T06:52:15.814Z,47.19
2022-08-09T06:52:48.871Z,47.50
2022-08-09T06:53:21.018Z,47.39
2022-08-09T06:53:52.952Z,47.13
2022-08-09T06:54:26.318Z,47.15
2022-08-09T06:54:58.311Z,46.76
2022-08-09T06:55:33.177Z,46.96
2022-08-09T06:56:09.285Z,46.83
2022-08-09T06:56:45.456Z,46.46
2022-08-09T06:57:18.551Z,46.39
2022-08-09T06:58:01.855Z,46.41
2022-08-09T07:00:46.630Z,46.38
2022-08-09T07:00:55.236Z,46.97
2022-08-09T07:00:56.901Z,46.82
2022-08-09T07:01:13.224Z,48.76
2022-08-09T07:01:58.017Z,47.55
2022-08-09T07:02:32.294Z,47.37
2022-08-09T07:03:05.370Z,47.38
2022-08-09T07:03:39.699Z,47.28
2022-08-09T07:04:24.272Z,47.30
2022-08-09T07:04:56.914Z,46.62
2022-08-09T07:06:02.399Z,46.46
2022-08-09T07:06:21.585Z,46.56
2022-08-09T07:07:00.383Z,46.49
2022-08-09T07:07:59.553Z,46.08
2022-08-09T07:08:24.914Z,46.04
2022-08-09T07:08:56.936Z,45.72
2022-08-09T07:09:54.553Z,45.78
2022-08-09T07:10:31.338Z,46.24
2022-08-09T07:11:06.081Z,45.88
2022-08-09T07:11:52.220Z,45.59
2022-08-09T07:12:40.793Z,45.33
2022-08-09T07:13:27.259Z,45.24
2022-08-09T07:14:05.683Z,45.32
2022-08-09T07:14:38.740Z,45.26
2022-08-09T07:16:34.990Z,45.13
2022-08-09T07:16:43.423Z,45.21
2022-08-09T07:16:58.384Z,45.18
2022-08-09T07:17:39.859Z,46.14
2022-08-09T07:18:22.516Z,46.31
2022-08-09T07:18:54.418Z,45.93
2022-08-09T07:19:27.340Z,44.43
2022-08-09T07:19:59.298Z,44.46
2022-08-09T07:20:31.743Z,44.36
2022-08-09T07:21:04.074Z,44.29
2022-08-09T07:21:41.164Z,44.56
2022-08-09T07:22:35.099Z,44.46
2022-08-09T07:23:18.727Z,44.26
2022-08-09T07:23:57.778Z,43.90
2022-08-09T07:24:31.997Z,44.31
2022-08-09T07:25:09.634Z,44.19
2022-08-09T07:25:43.351Z,43.98
2022-08-09T07:26:15.719Z,43.62
2022-08-09T07:26:47.622Z,43.71
2022-08-09T07:27:26.826Z,43.49
2022-08-09T07:28:06.255Z,43.76
2022-08-09T07:28:38.153Z,43.69
2022-08-09T07:29:30.726Z,43.84
2022-08-09T07:30:13.359Z,43.85
2022-08-09T07:30:45.335Z,43.62
2022-08-09T07:31:17.583Z,43.75
2022-08-09T07:31:55.710Z,43.03
2022-08-09T07:32:32.446Z,43.30
2022-08-09T07:33:10.372Z,43.51
2022-08-09T07:33:53.138Z,43.24
2022-08-09T07:34:27.477Z,42.85
2022-08-09T07:34:59.444Z,42.79
2022-08-09T07:35:31.431Z,42.56
2022-08-09T07:36:24.431Z,43.06
2022-08-09T07:36:56.421Z,43.40
2022-08-09T07:37:28.326Z,43.83
2022-08-09T07:38:00.196Z,44.04
2022-08-09T07:38:33.028Z,43.71
2022-08-09T07:39:05.918Z,43.51
2022-08-09T07:39:44.071Z,43.48
2022-08-09T07:40:20.195Z,43.80
2022-08-09T07:41:12.003Z,43.96
2022-08-09T07:41:45.230Z,43.83
2022-08-09T07:42:17.297Z,43.78
2022-08-09T07:42:49.273Z,43.78
2022-08-09T07:43:22.177Z,43.54
2022-08-09T07:44:01.476Z,43.31
2022-08-09T07:44:51.563Z,43.93
2022-08-09T07:45:37.488Z,44.18
2022-08-09T07:46:12.479Z,43.18
2022-08-09T07:46:51.781Z,42.88
2022-08-09T07:47:24.194Z,42.52
2022-08-09T07:48:01.724Z,42.04
2022-08-09T07:48:36.582Z,42.68
2022-08-09T07:49:15.325Z,43.35
2022-08-09T07:50:05.144Z,43.28
2022-08-09T07:50:43.297Z,43.00
2022-08-09T07:52:04.467Z,42.64
2022-08-09T07:52:17.949Z,42.15
2022-08-09T07:52:50.518Z,41.80
2022-08-09T07:54:01.599Z,41.66
2022-08-09T07:54:19.061Z,41.28
2022-08-09T07:54:59.684Z,41.76
2022-08-09T07:55:41.727Z,40.46
2022-08-09T07:56:27.220Z,40.18
2022-08-09T07:56:59.335Z,40.18
2022-08-09T07:57:36.093Z,39.97
2022-08-09T07:58:13.115Z,39.92
2022-08-09T07:58:47.345Z,39.58
2022-08-09T07:59:25.285Z,39.67
2022-08-09T08:00:08.948Z,39.60
2022-08-09T08:00:56.078Z,38.43
2022-08-09T08:01:34.233Z,38.64
2022-08-09T08:02:06.834Z,39.11
2022-08-09T08:02:42.647Z,39.40
2022-08-09T08:03:14.924Z,39.58
2022-08-09T08:03:49.941Z,39.12
2022-08-09T08:04:25.575Z,39.17
2022-08-09T08:05:04.126Z,39.02
2022-08-09T08:05:57.693Z,38.63
2022-08-09T08:06:32.114Z,38.58
2022-08-09T08:07:09.554Z,38.73
2022-08-09T08:08:43.327Z,38.89
2022-08-09T08:09:03.992Z,38.62
2022-08-09T08:09:42.888Z,38.23
2022-08-09T08:10:27.308Z,38.36
2022-08-09T08:11:03.389Z,38.01
2022-08-09T08:12:12.145Z,37.80
2022-08-09T08:12:45.522Z,37.72
2022-08-09T08:13:18.749Z,38.36
2022-08-09T08:13:56.986Z,38.23
2022-08-09T08:14:29.308Z,38.32
2022-08-09T08:15:02.266Z,38.06
2022-08-09T08:15:37.450Z,38.43
2022-08-09T08:16:30.036Z,38.80
2022-08-09T08:17:08.095Z,38.55
2022-08-09T08:17:54.229Z,38.29
2022-08-09T08:18:28.090Z,38.64
2022-08-09T08:19:03.241Z,38.27
2022-08-09T08:19:36.514Z,37.90
2022-08-09T08:20:12.531Z,37.98
2022-08-09T08:20:46.066Z,38.23
2022-08-09T08:21:21.307Z,38.36
2022-08-09T08:21:54.940Z,38.61
2022-08-09T08:22:28.647Z,38.77
2022-08-09T08:23:06.752Z,38.67
2022-08-09T08:23:55.572Z,38.51
2022-08-09T08:24:40.309Z,38.49
2022-08-09T08:25:13.507Z,38.23
2022-08-09T08:25:48.179Z,38.68
2022-08-09T08:26:26.449Z,38.59
2022-08-09T08:27:16.588Z,38.51
2022-08-09T08:27:49.873Z,38.28